createdAt,value
2019-02-02T00:03:46.739Z,92936.00
2019-02-02T00:09:50.602Z,92918.00
2019-02-02T00:12:32.900Z,92937.00
2019-02-02T00:15:22.459Z,92924.00
2019-02-02T00:18:04.957Z,92929.00
2019-02-02T00:20:54.502Z,92928.00
2019-02-02T00:23:36.658Z,92920.00
2019-02-02T00:26:26.235Z,92924.00
2019-02-02T00:29:08.712Z,92929.00
2019-02-02T00:31:58.257Z,92933.00
2019-02-02T00:34:40.119Z,92933.00
2019-02-02T00:38:07.819Z,92941.00
2019-02-02T00:40:50.373Z,92938.00
2019-02-02T00:43:39.903Z,92925.00
2019-02-02T00:46:21.905Z,92918.00
2019-02-02T00:52:19.361Z,92932.00
2019-02-02T00:58:01.995Z,92926.00
2019-02-02T01:00:53.648Z,92920.00
2019-02-02T01:03:43.159Z,92914.00
2019-02-02T01:06:25.734Z,92929.00
2019-02-02T01:12:27.176Z,92919.00
2019-02-02T01:15:09.424Z,92912.00
2019-02-02T01:17:58.966Z,92925.00
2019-02-02T01:20:41.415Z,92924.00
2019-02-02T01:23:30.959Z,92927.00
2019-02-02T01:26:12.848Z,92925.00
2019-02-02T01:29:16.362Z,92924.00
2019-02-02T01:31:46.066Z,92924.00
2019-02-02T01:37:22.842Z,92932.00
2019-02-02T01:46:36.806Z,92912.00
2019-02-02T01:49:26.537Z,92909.00
2019-02-02T01:52:09.129Z,92895.00
2019-02-02T01:54:58.679Z,92887.00
2019-02-02T01:57:41.077Z,92896.00
2019-02-02T02:01:10.665Z,92900.00
2019-02-02T02:03:53.145Z,92898.00
2019-02-02T02:06:42.679Z,92888.00
2019-02-02T02:12:33.507Z,92911.00
2019-02-02T02:15:15.867Z,92897.00
2019-02-02T02:18:05.777Z,92903.00
2019-02-02T02:20:48.037Z,92908.00
2019-02-02T02:26:44.565Z,92897.00
2019-02-02T02:32:35.440Z,92896.00
2019-02-02T02:35:18.006Z,92898.00
2019-02-02T02:38:07.872Z,92895.00
2019-02-02T02:40:50.526Z,92906.00
2019-02-02T02:43:40.136Z,92882.00
2019-02-02T02:46:29.696Z,92877.00
2019-02-02T02:49:12.047Z,92887.00
2019-02-02T02:52:01.614Z,92897.00
2019-02-02T02:54:51.108Z,92894.00
2019-02-02T02:57:33.538Z,92910.00
2019-02-02T03:03:53.995Z,92910.00
2019-02-02T03:13:34.402Z,92909.00
2019-02-02T03:16:17.067Z,92911.00
2019-02-02T03:19:06.813Z,92896.00
2019-02-02T03:21:50.683Z,92912.00
2019-02-02T03:24:40.594Z,92911.00
2019-02-02T03:27:23.186Z,92916.00
2019-02-02T03:30:53.327Z,92920.00
2019-02-02T03:33:35.826Z,92917.00
2019-02-02T03:36:25.371Z,92915.00
2019-02-02T03:39:11.097Z,92927.00
2019-02-02T03:42:19.505Z,92926.00
2019-02-02T03:45:01.704Z,92950.00
2019-02-02T03:48:31.188Z,92937.00
2019-02-02T03:51:13.459Z,92947.00
2019-02-02T03:54:07.908Z,92936.00
2019-02-02T03:56:48.284Z,92933.00
2019-02-02T03:59:30.274Z,92928.00
2019-02-02T04:02:38.836Z,92937.00
2019-02-02T04:05:21.710Z,92947.00
2019-02-02T04:08:11.228Z,92947.00
2019-02-02T04:10:53.837Z,92956.00
2019-02-02T04:14:02.218Z,92965.00
2019-02-02T04:16:44.721Z,92954.00
2019-02-02T04:19:34.220Z,92950.00
2019-02-02T04:22:16.693Z,92957.00
2019-02-02T04:28:14.028Z,92959.00
2019-02-02T04:34:04.195Z,92965.00
2019-02-02T04:36:46.783Z,92948.00
2019-02-02T04:39:55.208Z,92949.00
2019-02-02T04:42:37.458Z,92961.00
2019-02-02T04:45:27.007Z,92956.00
2019-02-02T04:48:09.336Z,92967.00
2019-02-02T04:50:58.878Z,92971.00
2019-02-02T04:53:41.475Z,92965.00
2019-02-02T04:56:31.048Z,92959.00
2019-02-02T04:59:13.116Z,92950.00
2019-02-02T05:02:02.642Z,92959.00
2019-02-02T05:04:44.648Z,92966.00
2019-02-02T05:07:34.182Z,92967.00
2019-02-02T05:10:17.036Z,92984.00
2019-02-02T05:13:06.573Z,92985.00
2019-02-02T05:15:50.080Z,92983.00
2019-02-02T05:22:00.942Z,92984.00
2019-02-02T05:24:42.640Z,92992.00
2019-02-02T05:27:32.184Z,92997.00
2019-02-02T05:30:18.895Z,92997.00
2019-02-02T05:33:08.475Z,92982.00
2019-02-02T05:35:50.561Z,92986.00
2019-02-02T05:38:40.146Z,92983.00
2019-02-02T05:41:22.725Z,92988.00
2019-02-02T05:44:12.263Z,92983.00
2019-02-02T05:46:54.811Z,92997.00
2019-02-02T05:50:03.221Z,92994.00
2019-02-02T05:52:44.931Z,93007.00
2019-02-02T05:55:29.153Z,93025.00
2019-02-02T05:58:18.691Z,93015.00
2019-02-02T06:01:01.132Z,93031.00
2019-02-02T06:04:09.532Z,93037.00
2019-02-02T06:06:51.219Z,93050.00
2019-02-02T06:09:40.753Z,93059.00
2019-02-02T06:12:23.421Z,93059.00
2019-02-02T06:18:20.808Z,93085.00
2019-02-02T06:21:10.314Z,93075.00
2019-02-02T06:23:52.391Z,93081.00
2019-02-02T06:32:57.964Z,93081.00
2019-02-02T06:35:40.280Z,93093.00
2019-02-02T06:41:36.971Z,93111.00
2019-02-02T06:44:26.524Z,93105.00
2019-02-02T06:47:35.961Z,93113.00
2019-02-02T06:50:18.096Z,93126.00
2019-02-02T06:53:07.611Z,93124.00
2019-02-02T06:55:49.305Z,93110.00
2019-02-02T06:58:38.891Z,93120.00
2019-02-02T07:01:20.980Z,93126.00
2019-02-02T07:07:24.715Z,93145.00
2019-02-02T07:10:07.657Z,93146.00
2019-02-02T07:16:05.319Z,93151.00
2019-02-02T07:18:54.880Z,93161.00
2019-02-02T07:21:44.484Z,93152.00
2019-02-02T07:30:36.646Z,93169.00
2019-02-02T07:33:19.917Z,93176.00
2019-02-02T07:36:09.561Z,93166.00
2019-02-02T07:38:52.477Z,93177.00
2019-02-02T07:41:34.689Z,93176.00
2019-02-02T07:44:24.196Z,93178.00
2019-02-02T07:47:09.133Z,93166.00
2019-02-02T07:49:57.518Z,93181.00
2019-02-02T07:52:39.663Z,93172.00
2019-02-02T07:55:48.195Z,93177.00
2019-02-02T07:58:34.868Z,93166.00
2019-02-02T08:04:31.643Z,93157.00
2019-02-02T08:07:14.513Z,93193.00
2019-02-02T08:16:18.027Z,93220.00
2019-02-02T08:22:21.377Z,93232.00
2019-02-02T08:25:03.368Z,93264.00
2019-02-02T08:27:55.585Z,93280.00
2019-02-02T08:30:37.997Z,93282.00
2019-02-02T08:33:27.799Z,93292.00
2019-02-02T08:36:16.144Z,93294.00
2019-02-02T08:39:00.157Z,93290.00
2019-02-02T08:41:50.836Z,93292.00
2019-02-02T08:44:33.716Z,93293.00
2019-02-02T08:47:23.495Z,93281.00
2019-02-02T08:50:07.142Z,93265.00
2019-02-02T08:52:56.685Z,93254.00
2019-02-02T08:55:39.413Z,93245.00
2019-02-02T08:58:28.972Z,93259.00
2019-02-02T09:01:11.481Z,93260.00
2019-02-02T09:03:54.230Z,93254.00
2019-02-02T09:06:43.772Z,93250.00
2019-02-02T09:09:26.320Z,93269.00
2019-02-02T09:12:15.802Z,93275.00
2019-02-02T09:14:59.298Z,93272.00
2019-02-02T09:20:56.106Z,93298.00
2019-02-02T09:23:45.829Z,93292.00
2019-02-02T09:26:35.461Z,93309.00
2019-02-02T09:29:18.017Z,93327.00
2019-02-02T09:32:07.521Z,93337.00
2019-02-02T09:34:50.130Z,93341.00
2019-02-02T09:40:47.724Z,93358.00
2019-02-02T09:46:43.220Z,93358.00
2019-02-02T09:49:43.864Z,93364.00
2019-02-02T09:55:42.098Z,93368.00
2019-02-02T09:58:23.739Z,93388.00
2019-02-02T10:01:13.317Z,93387.00
2019-02-02T10:03:56.528Z,93386.00
2019-02-02T10:09:54.105Z,93399.00
2019-02-02T10:12:43.650Z,93395.00
2019-02-02T10:15:26.412Z,93392.00
2019-02-02T10:18:16.431Z,93399.00
2019-02-02T10:21:04.215Z,93399.00
2019-02-02T10:27:05.277Z,93411.00
2019-02-02T10:29:47.194Z,93420.00
2019-02-02T10:32:36.770Z,93413.00
2019-02-02T10:35:20.234Z,93409.00
2019-02-02T10:38:02.929Z,93404.00
2019-02-02T10:40:52.475Z,93399.00
2019-02-02T10:43:35.625Z,93407.00
2019-02-02T10:46:17.938Z,93415.00
2019-02-02T10:49:07.660Z,93424.00
2019-02-02T10:51:57.171Z,93439.00
2019-02-02T10:54:39.617Z,93426.00
2019-02-02T10:57:29.135Z,93425.00
2019-02-02T11:00:14.155Z,93437.00
2019-02-02T11:03:03.710Z,93444.00
2019-02-02T11:05:46.239Z,93436.00
2019-02-02T11:08:37.205Z,93434.00
2019-02-02T11:11:21.089Z,93427.00
2019-02-02T11:14:30.795Z,93422.00
2019-02-02T11:17:12.950Z,93418.00
2019-02-02T11:23:03.663Z,93413.00
2019-02-02T11:25:47.809Z,93430.00
2019-02-02T11:28:37.615Z,93439.00
2019-02-02T11:31:21.843Z,93425.00
2019-02-02T11:37:04.765Z,93437.00
2019-02-02T11:39:46.527Z,93429.00
2019-02-02T11:42:36.065Z,93433.00
2019-02-02T11:45:17.988Z,93448.00
2019-02-02T11:48:07.589Z,93454.00
2019-02-02T11:50:49.404Z,93463.00
2019-02-02T11:53:39.142Z,93461.00
2019-02-02T11:56:21.716Z,93469.00
2019-02-02T12:02:49.592Z,93463.00
2019-02-02T12:05:27.157Z,93468.00
2019-02-02T12:08:35.708Z,93477.00
2019-02-02T12:11:18.784Z,93491.00
2019-02-02T12:17:18.109Z,93487.00
2019-02-02T12:26:37.798Z,93500.00
2019-02-02T12:29:20.249Z,93497.00
2019-02-02T12:35:04.683Z,93486.00
2019-02-02T12:41:31.406Z,93482.00
2019-02-02T12:44:16.760Z,93496.00
2019-02-02T12:47:02.240Z,93503.00
2019-02-02T12:49:52.128Z,93493.00
2019-02-02T12:52:45.912Z,93477.00
2019-02-02T13:05:13.522Z,93481.00
2019-02-02T13:08:05.332Z,93490.00
2019-02-02T13:10:53.402Z,93486.00
2019-02-02T13:13:37.732Z,93480.00
2019-02-02T13:19:28.865Z,93504.00
2019-02-02T13:22:18.725Z,93503.00
2019-02-02T13:25:01.428Z,93499.00
2019-02-02T13:27:51.091Z,93497.00
2019-02-02T13:30:34.048Z,93486.00
2019-02-02T13:33:42.477Z,93489.00
2019-02-02T13:36:25.023Z,93473.00
2019-02-02T13:39:14.655Z,93470.00
2019-02-02T13:51:51.400Z,93478.00
2019-02-02T13:54:34.436Z,93469.00
2019-02-02T14:00:35.195Z,93483.00
2019-02-02T14:03:19.583Z,93480.00
2019-02-02T14:06:02.222Z,93480.00
2019-02-02T14:08:51.796Z,93484.00
2019-02-02T14:11:34.328Z,93482.00
2019-02-02T14:14:23.911Z,93496.00
2019-02-02T14:17:06.670Z,93500.00
2019-02-02T14:23:04.574Z,93506.00
2019-02-02T14:25:54.140Z,93495.00
2019-02-02T14:28:36.781Z,93502.00
2019-02-02T14:31:26.311Z,93501.00
2019-02-02T14:34:14.602Z,93501.00
2019-02-02T14:36:57.324Z,93504.00
2019-02-02T14:39:49.215Z,93508.00
2019-02-02T14:42:30.757Z,93502.00
2019-02-02T14:46:00.452Z,93505.00
2019-02-02T14:48:42.586Z,93499.00
2019-02-02T14:51:32.083Z,93521.00
2019-02-02T14:54:14.803Z,93515.00
2019-02-02T14:57:04.321Z,93525.00
2019-02-02T14:59:46.056Z,93527.00
2019-02-02T15:02:35.613Z,93532.00
2019-02-02T15:05:25.248Z,93539.00
2019-02-02T15:08:07.419Z,93532.00
2019-02-02T15:10:56.931Z,93538.00
2019-02-02T15:13:38.647Z,93541.00
2019-02-02T15:16:47.103Z,93559.00
2019-02-02T15:19:28.951Z,93544.00
2019-02-02T15:22:19.136Z,93548.00
2019-02-02T15:25:01.272Z,93560.00
2019-02-02T15:27:50.774Z,93559.00
2019-02-02T15:30:33.036Z,93554.00
2019-02-02T15:33:42.056Z,93549.00
2019-02-02T15:36:24.374Z,93554.00
2019-02-02T15:48:42.934Z,93562.00
2019-02-02T15:54:23.857Z,93562.00
2019-02-02T15:57:13.412Z,93558.00
2019-02-02T15:59:55.649Z,93565.00
2019-02-02T16:02:45.302Z,93567.00
2019-02-02T16:05:28.153Z,93574.00
2019-02-02T16:08:17.677Z,93566.00
2019-02-02T16:11:00.036Z,93585.00
2019-02-02T16:14:08.530Z,93575.00
2019-02-02T16:16:50.621Z,93583.00
2019-02-02T16:19:40.311Z,93594.00
2019-02-02T16:22:22.432Z,93595.00
2019-02-02T16:28:20.882Z,93598.00
2019-02-02T16:31:10.462Z,93614.00
2019-02-02T16:34:01.754Z,93627.00
2019-02-02T16:39:45.402Z,93627.00
2019-02-02T16:45:41.573Z,93649.00
2019-02-02T16:48:31.391Z,93651.00
2019-02-02T16:51:20.948Z,93656.00
2019-02-02T16:54:03.192Z,93663.00
2019-02-02T16:59:47.168Z,93666.00
2019-02-02T17:02:36.744Z,93674.00
2019-02-02T17:05:18.634Z,93659.00
2019-02-02T17:08:08.180Z,93665.00
2019-02-02T17:10:50.196Z,93677.00
2019-02-02T17:13:39.735Z,93676.00
2019-02-02T17:19:49.110Z,93691.00
2019-02-02T17:22:31.524Z,93693.00
2019-02-02T17:28:14.554Z,93697.00
2019-02-02T17:34:07.168Z,93688.00
2019-02-02T17:39:44.571Z,93683.00
2019-02-02T17:42:34.150Z,93690.00
2019-02-02T17:45:16.957Z,93693.00
2019-02-02T17:48:46.442Z,93687.00
2019-02-02T17:51:28.113Z,93691.00
2019-02-02T17:54:17.639Z,93689.00
2019-02-02T17:57:01.385Z,93693.00
2019-02-02T17:59:44.077Z,93718.00
2019-02-02T18:05:34.990Z,93734.00
2019-02-02T18:08:16.734Z,93728.00
2019-02-02T18:11:06.251Z,93723.00
2019-02-02T18:13:50.448Z,93744.00
2019-02-02T18:19:55.626Z,93737.00
2019-02-02T18:22:37.932Z,93754.00
2019-02-02T18:25:46.627Z,93766.00
2019-02-02T18:28:29.499Z,93764.00
2019-02-02T18:34:53.374Z,93774.00
2019-02-02T18:37:35.066Z,93769.00
2019-02-02T18:40:24.664Z,93754.00
2019-02-02T18:43:07.742Z,93760.00
2019-02-02T18:46:12.007Z,93753.00
2019-02-02T18:48:41.949Z,93750.00
2019-02-02T18:54:40.746Z,93792.00
2019-02-02T18:57:49.410Z,93779.00
2019-02-02T19:00:32.706Z,93781.00
2019-02-02T19:06:30.608Z,93777.00
2019-02-02T19:09:20.274Z,93784.00
2019-02-02T19:12:02.176Z,93789.00
2019-02-02T19:18:20.401Z,93791.00
2019-02-02T19:21:03.833Z,93797.00
2019-02-02T19:23:53.871Z,93781.00
2019-02-02T19:26:36.291Z,93778.00
2019-02-02T19:29:44.857Z,93779.00
2019-02-02T19:32:29.223Z,93783.00
2019-02-02T19:38:11.372Z,93784.00
2019-02-02T19:47:43.912Z,93797.00
2019-02-02T19:50:36.409Z,93805.00
2019-02-02T19:53:20.895Z,93799.00
2019-02-02T19:56:29.705Z,93806.00
2019-02-02T20:11:57.687Z,93861.00
2019-02-02T20:14:40.105Z,93872.00
2019-02-02T20:17:29.774Z,93893.00
2019-02-02T20:20:14.052Z,93884.00
2019-02-02T20:23:03.725Z,93898.00
2019-02-02T20:25:45.960Z,93897.00
2019-02-02T20:28:35.518Z,93895.00
2019-02-02T20:31:17.571Z,93907.00
2019-02-02T20:34:40.870Z,93901.00
2019-02-02T20:36:46.602Z,93908.00
2019-02-02T20:42:30.201Z,93910.00
2019-02-02T20:46:00.636Z,93905.00
2019-02-02T20:48:44.990Z,93915.00
2019-02-02T20:54:24.283Z,93926.00
2019-02-02T21:03:39.314Z,93926.00
2019-02-02T21:06:21.075Z,93922.00
2019-02-02T21:12:44.557Z,93931.00
2019-02-02T21:18:19.855Z,93933.00
2019-02-02T21:21:10.032Z,93937.00
2019-02-02T21:23:59.652Z,93934.00
2019-02-02T21:27:08.142Z,93929.00
2019-02-02T21:29:50.615Z,93914.00
2019-02-02T21:32:32.741Z,93916.00
2019-02-02T21:35:39.815Z,93912.00
2019-02-02T21:38:31.307Z,93914.00
2019-02-02T21:41:13.541Z,93906.00
2019-02-02T21:44:03.175Z,93902.00
2019-02-02T21:46:45.583Z,93904.00
2019-02-02T21:49:27.721Z,93913.00
2019-02-02T21:52:17.256Z,93916.00
2019-02-02T21:55:02.232Z,93910.00
2019-02-02T21:57:51.967Z,93903.00
2019-02-02T22:00:36.463Z,93915.00
2019-02-02T22:03:37.408Z,93904.00
2019-02-02T22:06:27.434Z,93904.00
2019-02-02T22:09:10.068Z,93900.00
2019-02-02T22:11:59.788Z,93908.00
2019-02-02T22:14:46.244Z,93904.00
2019-02-02T22:20:37.295Z,93910.00
2019-02-02T22:23:19.280Z,93913.00
2019-02-02T22:26:08.845Z,93904.00
2019-02-02T22:28:57.902Z,93907.00
2019-02-02T22:31:44.823Z,93900.00
2019-02-02T22:34:34.273Z,93902.00
2019-02-02T22:37:16.424Z,93890.00
2019-02-02T22:43:21.489Z,93906.00
2019-02-02T22:46:11.025Z,93898.00
2019-02-02T22:48:53.470Z,93890.00
2019-02-02T22:51:43.111Z,93887.00
2019-02-02T22:54:32.663Z,93901.00
2019-02-02T22:57:15.465Z,93915.00
2019-02-02T23:03:35.000Z,93921.00
2019-02-02T23:07:03.704Z,93925.00
2019-02-02T23:10:04.837Z,93911.00
2019-02-02T23:13:39.358Z,93920.00
2019-02-02T23:16:25.675Z,93933.00
2019-02-02T23:19:17.808Z,93938.00
2019-02-02T23:25:15.676Z,93934.00
2019-02-02T23:28:05.228Z,93932.00
2019-02-02T23:30:47.711Z,93953.00
2019-02-02T23:36:31.020Z,93951.00
2019-02-02T23:39:20.693Z,93928.00
2019-02-02T23:42:02.689Z,93919.00
2019-02-02T23:44:52.200Z,93932.00
2019-02-02T23:47:36.501Z,93937.00
2019-02-02T23:50:26.038Z,93924.00
2019-02-02T23:53:08.581Z,93926.00
2019-02-02T23:55:58.101Z,93936.00
2019-02-02T23:58:42.685Z,93939.00
